Isle of Jura, United Kingdom
Current Conditions -  °F | °C
As of 7:20 PM on Thursday 18 Dec 2014 (Local Time) from EGPI Reporting Station
Clear Clear  
Wind Chill: 35°   Ceiling: Unl
Heat Index: 45°   Visibility: 6mi
Dew Point: 37°   Wind: 26mph
Humidity: 76%   Direction: 280°W
Pressure: 29.47"   Gusts: NA
Location:  55.84°N, 5.95°W
Report Text: EGPI 181920Z AUTO 28023KT 9999 NCD 07/03 Q0998
Loading
Personal Weather Stations






























Interactive Weather Map New forecast layout! Learn more

10-Day Weather Forecast

Advertisements
Track Severe Weather on mobile